Portada
METAR-TAF:

METAR-TAF

Aeroports :

Naval Air Station Whiting Field South

Milton, Florida, Estats Units d'Amèrica

latitud: 30-41-50N, longitud: 087-01-12W, altitud: 54 m

Observació

L'informe es va fer fa 1 hora i 0 minuts, a les 18:56 UTC
Vent 4 kt del Oest/Sud-Oest
Temperatura 31°C
Humitat 63%
Pressió 1017 hPa
Visibilitat: 16.1 km
Núvols disperses a una alçada de 3500 ft
Cel ennuvolat a una alçada de 15000 ft
Cel ennuvolat a una alçada de 25000 ft

METAR: KNDZ 181856Z 25004KT 10SM SCT035 BKN150 BKN250 31/23 A3003 RMK SLP152 CB DSNT W T1 SET T03110233

Hora: 14:56 (19:56 UTC)


TAF: manca

Observacions i pronòstics meteorològics de més de 4000 aeroports (METAR i TAF).

Les estacions disponibles són els punts grocs i vermells al mapa.

Posi el ratolí al punt desitjat per veure el nom de l'estació.

Feu clic per veure les observacions i els pronòstics meteorològics.

Per canviar el mapa: feu clic els botons verds amb una creu de color negre per apropar; al botó verd amb un guió per allunyar la imatge; o en les fletxes verdes per a mapes adjacents.


METAR-TAF: